Time;durP1;ratioP1;P1;durP2;ratioP2;P2;SDS_P1;SDS_P2;PMS_P1;PMS_P2;Temp;Humidity;BMP_temperature;BMP_pressure;BME280_temperature;BME280_humidity;BME280_pressure;Samples;Min_cycle;Max_cycle;Signal;HPM_P1;HPM_P2
2022/10/29 00:02:22;;;;;;;10.73;2.93;;;;;;;11.56;100.00;96633.34;5029150;28;24442;-69
2022/10/29 00:04:50;;;;;;;10.80;3.90;;;;;;;11.49;100.00;96630.22;5020687;28;24439;-69
2022/10/29 00:07:16;;;;;;;12.75;4.03;;;;;;;11.44;100.00;96624.44;5024132;28;24435;-69
2022/10/29 00:09:43;;;;;;;9.32;3.90;;;;;;;11.46;100.00;96617.44;5020039;28;24440;-69
2022/10/29 00:12:09;;;;;;;10.47;4.43;;;;;;;11.53;100.00;96617.94;5017890;28;24440;-69
2022/10/29 00:14:36;;;;;;;14.00;5.05;;;;;;;11.58;100.00;96614.19;5027001;28;24942;-69
2022/10/29 00:17:03;;;;;;;12.02;4.72;;;;;;;11.59;100.00;96613.25;5026279;28;24436;-69
2022/10/29 00:19:29;;;;;;;10.85;4.60;;;;;;;11.62;100.00;96607.91;5018393;28;24444;-69
2022/10/29 00:21:57;;;;;;;12.18;4.07;;;;;;;11.66;100.00;96606.00;5027561;28;24440;-69
2022/10/29 00:24:24;;;;;;;14.13;4.28;;;;;;;11.56;100.00;96618.59;5027286;28;24757;-69
2022/10/29 00:26:50;;;;;;;14.25;4.28;;;;;;;11.47;100.00;96615.69;5022846;28;24436;-69
2022/10/29 00:29:17;;;;;;;8.53;3.90;;;;;;;11.47;100.00;96618.28;5018216;28;25116;-69
2022/10/29 00:31:43;;;;;;;13.88;4.05;;;;;;;11.47;100.00;96618.28;5025429;28;24432;-69
2022/10/29 00:34:10;;;;;;;7.68;4.22;;;;;;;11.39;100.00;96616.91;5027166;28;24443;-69
2022/10/29 00:36:36;;;;;;;14.25;4.55;;;;;;;11.39;100.00;96619.50;5023651;28;24989;-69
2022/10/29 00:39:04;;;;;;;12.90;4.28;;;;;;;11.35;100.00;96615.41;5026381;28;24440;-69
2022/10/29 00:41:30;;;;;;;12.20;4.20;;;;;;;11.34;100.00;96616.31;5026688;28;24436;-69
2022/10/29 00:44:26;;;;;;;10.00;4.53;;;;;;;11.37;100.00;96612.72;5027079;28;24459;-69
2022/10/29 00:46:58;;;;;;;12.98;4.47;;;;;;;11.33;100.00;96613.81;5021341;28;24447;-69
2022/10/29 00:49:26;;;;;;;14.10;4.30;;;;;;;11.37;100.00;96612.72;5023057;28;24455;-69
2022/10/29 00:51:53;;;;;;;14.00;4.47;;;;;;;11.44;100.00;96608.88;5021790;28;24439;-70
2022/10/29 00:54:21;;;;;;;17.08;4.35;;;;;;;11.54;100.00;96607.50;5026915;28;24446;-69
2022/10/29 00:56:52;;;;;;;9.77;3.60;;;;;;;11.58;100.00;96613.34;5023135;28;24444;-69
2022/10/29 00:59:18;;;;;;;14.80;4.32;;;;;;;11.49;100.00;96619.00;5026925;28;24448;-69
2022/10/29 01:01:48;;;;;;;10.38;3.90;;;;;;;11.38;100.00;96614.38;5024271;28;24436;-69
2022/10/29 01:04:14;;;;;;;11.10;3.70;;;;;;;11.34;100.00;96610.28;5028784;28;25008;-69
2022/10/29 01:06:42;;;;;;;11.68;3.97;;;;;;;11.36;100.00;96604.09;5020575;28;24439;-69
2022/10/29 01:09:09;;;;;;;9.57;4.15;;;;;;;11.38;100.00;96594.50;5023862;28;24454;-69
2022/10/29 01:11:47;;;;;;;11.65;4.05;;;;;;;11.51;100.00;96602.47;5024356;28;24447;-69
2022/10/29 01:14:28;;;;;;;10.93;4.45;;;;;;;11.51;100.00;96609.41;5021339;28;24481;-69
2022/10/29 01:17:01;;;;;;;10.48;3.88;;;;;;;11.54;100.00;96604.06;5024321;28;24790;-69
2022/10/29 01:19:50;;;;;;;9.30;3.80;;;;;;;11.54;100.00;96591.91;5027581;28;24447;-69
2022/10/29 01:22:24;;;;;;;12.25;4.40;;;;;;;11.50;100.00;96602.56;5021640;28;24450;-69
2022/10/29 01:25:26;;;;;;;14.40;4.10;;;;;;;11.46;100.00;96607.06;5020878;28;24484;-69
2022/10/29 01:28:09;;;;;;;11.82;4.43;;;;;;;11.45;100.00;96600.19;5021888;28;24435;-69
2022/10/29 01:31:06;;;;;;;11.57;4.25;;;;;;;11.43;100.00;96604.63;5028183;28;24439;-69
2022/10/29 01:33:39;;;;;;;12.02;4.18;;;;;;;11.42;100.00;96602.97;5027912;28;24836;-69
2022/10/29 01:36:12;;;;;;;9.75;4.45;;;;;;;11.43;100.00;96594.25;5018737;28;24443;-69
2022/10/29 01:38:45;;;;;;;14.48;4.20;;;;;;;11.38;100.00;96599.69;5023992;28;24463;-69
2022/10/29 01:41:19;;;;;;;13.73;4.40;;;;;;;11.39;100.00;96595.34;5025454;28;24436;-69
2022/10/29 01:43:51;;;;;;;13.68;3.88;;;;;;;11.29;100.00;96591.53;5028140;28;24479;-69
2022/10/29 01:46:23;;;;;;;13.98;4.03;;;;;;;11.27;100.00;96588.19;5020732;28;25033;-69
2022/10/29 01:48:54;;;;;;;14.13;3.95;;;;;;;11.26;100.00;96582.16;5022896;28;24447;-70
2022/10/29 01:51:23;;;;;;;8.65;3.72;;;;;;;11.29;100.00;96581.16;5025333;28;25080;-69
2022/10/29 01:53:51;;;;;;;9.23;4.13;;;;;;;11.20;100.00;96573.84;5027433;28;24470;-69
2022/10/29 01:56:18;;;;;;;10.07;3.58;;;;;;;11.13;100.00;96573.38;5018679;28;25217;-69
2022/10/29 01:58:47;;;;;;;7.45;3.88;;;;;;;11.12;100.00;96564.75;5028186;28;24519;-69
2022/10/29 02:01:33;;;;;;;8.30;4.10;;;;;;;11.07;100.00;96564.13;5025830;28;24436;-69
2022/10/29 02:04:13;;;;;;;14.50;4.13;;;;;;;11.02;100.00;96565.31;5022338;28;24515;-69
2022/10/29 02:06:48;;;;;;;10.85;4.35;;;;;;;11.08;100.00;96559.78;5028906;28;25007;-69
2022/10/29 02:09:21;;;;;;;9.70;4.03;;;;;;;11.15;100.00;96558.56;5021345;28;24440;-69
2022/10/29 02:11:53;;;;;;;10.75;3.75;;;;;;;11.26;100.00;96555.41;5025421;28;24446;-70
2022/10/29 02:14:26;;;;;;;11.82;4.43;;;;;;;11.31;100.00;96569.81;5028114;28;24723;-70
2022/10/29 02:16:55;;;;;;;10.52;3.90;;;;;;;11.30;100.00;96557.72;5028891;28;24439;-70
2022/10/29 02:19:22;;;;;;;8.85;4.10;;;;;;;11.28;100.00;96554.41;5022130;28;24441;-70
2022/10/29 02:21:50;;;;;;;15.63;4.28;;;;;;;11.30;100.00;96564.69;5031199;28;24467;-69
2022/10/29 02:24:16;;;;;;;8.55;3.72;;;;;;;11.37;100.00;96553.91;5027565;28;24492;-68
2022/10/29 02:26:43;;;;;;;9.25;3.60;;;;;;;11.44;100.00;96551.00;5023503;28;25089;-69
2022/10/29 02:29:09;;;;;;;7.20;3.40;;;;;;;11.51;100.00;96554.94;5022183;28;24472;-70
2022/10/29 02:31:36;;;;;;;10.43;3.75;;;;;;;11.54;100.00;96550.41;5028142;28;24439;-71
2022/10/29 02:34:04;;;;;;;12.52;4.13;;;;;;;11.54;100.00;96541.81;5029621;28;24435;-71
2022/10/29 02:36:30;;;;;;;11.25;3.72;;;;;;;11.58;100.00;96541.53;5022391;28;24440;-70
2022/10/29 02:38:57;;;;;;;10.38;3.55;;;;;;;11.62;100.00;96540.44;5023159;28;24444;-70
2022/10/29 02:41:23;;;;;;;10.40;3.97;;;;;;;11.68;100.00;96535.84;5027806;28;24466;-70
2022/10/29 02:43:50;;;;;;;16.25;4.15;;;;;;;11.53;100.00;96524.53;5030369;28;24463;-70
2022/10/29 02:46:18;;;;;;;16.20;3.95;;;;;;;11.55;100.00;96522.72;5020572;28;24436;-70
2022/10/29 02:48:44;;;;;;;10.02;3.63;;;;;;;11.52;100.00;96520.28;5024693;28;24440;-70
2022/10/29 02:51:12;;;;;;;8.80;3.40;;;;;;;11.47;100.00;96525.72;5026505;28;24447;-70
2022/10/29 02:53:39;;;;;;;9.80;3.50;;;;;;;11.39;100.00;96528.72;5023914;28;24508;-70
2022/10/29 02:56:07;;;;;;;7.63;3.58;;;;;;;11.33;100.00;96528.22;5020586;28;25004;-70
2022/10/29 02:58:34;;;;;;;17.85;4.80;;;;;;;11.17;100.00;96523.03;5022426;28;24448;-70
2022/10/29 03:01:01;;;;;;;12.05;3.85;;;;;;;11.32;100.00;96531.75;5021440;28;24442;-70
2022/10/29 03:03:28;;;;;;;10.30;3.30;;;;;;;11.34;100.00;96530.72;5025644;28;24495;-70
2022/10/29 03:05:54;;;;;;;11.57;3.97;;;;;;;11.25;100.00;96533.81;5023249;28;24455;-70
2022/10/29 03:08:22;;;;;;;16.45;4.57;;;;;;;11.11;100.00;96538.88;5031224;28;24440;-70
2022/10/29 03:10:49;;;;;;;11.48;3.50;;;;;;;11.12;100.00;96541.44;5021646;28;24436;-70
2022/10/29 03:13:16;;;;;;;13.55;3.75;;;;;;;11.18;100.00;96532.47;5027091;28;24814;-71
2022/10/29 03:15:44;;;;;;;10.68;4.22;;;;;;;11.21;100.00;96534.06;5018459;28;25047;-69
2022/10/29 03:18:11;;;;;;;26.40;4.38;;;;;;;11.16;100.00;96531.72;5019838;28;24451;-70
2022/10/29 03:20:38;;;;;;;13.25;4.25;;;;;;;11.24;100.00;96526.13;5029666;28;24435;-70
2022/10/29 03:23:04;;;;;;;9.68;3.75;;;;;;;11.26;100.00;96529.47;5023947;28;24447;-70
2022/10/29 03:25:32;;;;;;;12.80;4.32;;;;;;;11.36;100.00;96528.06;5019679;28;24452;-70
2022/10/29 03:27:59;;;;;;;8.88;3.55;;;;;;;11.44;100.00;96525.06;5026746;28;24440;-69
2022/10/29 03:30:25;;;;;;;16.40;3.60;;;;;;;11.44;100.00;96514.69;5027628;28;24554;-68
2022/10/29 03:32:52;;;;;;;10.50;3.38;;;;;;;11.39;100.00;96518.34;5024724;28;24431;-69
2022/10/29 03:35:18;;;;;;;8.32;3.75;;;;;;;11.39;100.00;96513.19;5018776;28;24436;-68
2022/10/29 03:37:45;;;;;;;8.40;3.80;;;;;;;11.39;100.00;96514.94;5023593;28;24457;-69
2022/10/29 03:40:11;;;;;;;12.18;3.42;;;;;;;11.36;100.00;96515.94;5027542;28;24435;-69
2022/10/29 03:42:39;;;;;;;8.65;3.80;;;;;;;11.40;100.00;96511.41;5030177;28;24806;-69
2022/10/29 03:45:07;;;;;;;11.18;3.97;;;;;;;11.36;100.00;96515.09;5029664;28;24815;-69
2022/10/29 03:47:33;;;;;;;8.97;3.50;;;;;;;11.37;100.00;96509.81;5023305;28;24432;-69
2022/10/29 03:50:00;;;;;;;10.37;3.70;;;;;;;11.36;100.00;96515.09;5027239;28;24439;-70
2022/10/29 03:52:26;;;;;;;7.78;3.25;;;;;;;11.37;100.00;96512.41;5024344;28;24432;-70
2022/10/29 03:54:53;;;;;;;10.43;3.70;;;;;;;11.25;100.00;96515.66;5029144;28;24517;-70
2022/10/29 03:57:20;;;;;;;16.27;4.55;;;;;;;11.22;100.00;96523.59;5026762;28;24451;-70
2022/10/29 03:59:48;;;;;;;25.60;4.00;;;;;;;11.27;100.00;96512.97;5023741;28;24440;-70
2022/10/29 04:02:14;;;;;;;9.90;3.60;;;;;;;11.21;100.00;96519.34;5027397;28;24854;-70
2022/10/29 04:04:41;;;;;;;15.82;4.30;;;;;;;11.11;100.00;96518.16;5029329;28;24456;-70
2022/10/29 04:07:07;;;;;;;10.13;3.92;;;;;;;11.25;100.00;96510.47;5023985;28;25000;-69
2022/10/29 04:09:34;;;;;;;11.20;3.40;;;;;;;11.34;100.00;96515.16;5027173;28;24443;-70
2022/10/29 04:12:00;;;;;;;13.07;4.25;;;;;;;11.25;100.00;96518.25;5017987;28;24432;-70
2022/10/29 04:14:27;;;;;;;11.80;3.55;;;;;;;11.31;100.00;96515.34;5029071;28;24494;-71
2022/10/29 04:16:55;;;;;;;10.27;3.60;;;;;;;11.36;100.00;96517.69;5021348;28;24623;-70
2022/10/29 04:19:21;;;;;;;11.38;3.85;;;;;;;11.39;100.00;96507.97;5024913;28;25013;-70
2022/10/29 04:21:48;;;;;;;10.63;3.78;;;;;;;11.34;100.00;96504.78;5022148;28;24439;-69
2022/10/29 04:24:14;;;;;;;10.07;3.40;;;;;;;11.22;100.00;96510.63;5021554;28;24474;-70
2022/10/29 04:26:42;;;;;;;12.20;3.50;;;;;;;11.17;100.00;96504.88;5023414;28;25067;-70
2022/10/29 04:29:09;;;;;;;10.38;3.45;;;;;;;11.11;100.00;96507.78;5016403;28;24443;-70
2022/10/29 04:31:36;;;;;;;8.85;3.67;;;;;;;11.07;100.00;96507.09;5022189;28;24433;-71
2022/10/29 04:34:05;;;;;;;14.20;3.90;;;;;;;11.03;100.00;96508.19;5028651;28;24435;-69
2022/10/29 04:36:31;;;;;;;8.30;3.53;;;;;;;11.05;100.00;96505.50;5023987;28;24447;-70
2022/10/29 04:38:58;;;;;;;6.70;3.42;;;;;;;11.02;100.00;96508.28;5020375;28;24437;-70
2022/10/29 04:41:24;;;;;;;11.93;3.65;;;;;;;10.86;100.00;96519.47;5027957;28;24435;-68
2022/10/29 04:43:51;;;;;;;9.57;4.00;;;;;;;10.84;100.00;96515.25;5027882;28;24443;-70
2022/10/29 04:46:17;;;;;;;10.70;3.50;;;;;;;10.93;100.00;96513.94;5020411;28;24440;-70
2022/10/29 04:48:44;;;;;;;6.97;3.10;;;;;;;10.90;100.00;96515.78;5018784;28;24808;-70
2022/10/29 04:51:19;;;;;;;9.38;3.33;;;;;;;10.92;100.00;96520.03;5026704;28;24443;-70
2022/10/29 04:53:46;;;;;;;10.30;3.65;;;;;;;11.00;100.00;96507.50;5026465;28;24443;-69
2022/10/29 04:56:12;;;;;;;8.27;3.70;;;;;;;10.91;100.00;96519.22;5020730;28;24522;-70
2022/10/29 04:58:39;;;;;;;16.33;3.65;;;;;;;11.04;100.00;96506.44;5015935;28;24451;-70
2022/10/29 05:01:06;;;;;;;10.98;4.25;;;;;;;10.82;100.00;96517.09;5013896;28;24439;-70
2022/10/29 05:03:33;;;;;;;12.85;3.47;;;;;;;10.61;100.00;96517.28;5016877;28;24450;-70
2022/10/29 05:06:02;;;;;;;11.52;4.00;;;;;;;10.63;100.00;96523.19;5022057;28;24459;-69
2022/10/29 05:08:30;;;;;;;12.38;4.22;;;;;;;10.46;100.00;96522.41;5025962;28;24448;-70
2022/10/29 05:10:57;;;;;;;8.77;4.20;;;;;;;10.56;100.00;96527.03;5027567;28;24438;-71
2022/10/29 05:13:23;;;;;;;10.00;3.42;;;;;;;10.58;100.00;96525.19;5029199;28;24443;-71
2022/10/29 05:15:50;;;;;;;13.38;3.75;;;;;;;10.59;100.00;96526.03;5028307;28;24436;-70
2022/10/29 05:18:17;;;;;;;9.52;3.05;;;;;;;10.53;100.00;96518.56;5028373;28;24512;-70
2022/10/29 05:20:44;;;;;;;7.30;3.20;;;;;;;10.44;100.00;96529.41;5026457;28;24436;-70
2022/10/29 05:23:12;;;;;;;12.02;3.60;;;;;;;10.48;100.00;96512.78;5024054;28;24442;-68
2022/10/29 05:25:41;;;;;;;9.05;3.53;;;;;;;10.31;100.00;96516.25;5026960;28;24448;-69
2022/10/29 05:28:12;;;;;;;13.80;3.60;;;;;;;10.36;100.00;96514.25;5026038;28;24475;-70
2022/10/29 05:30:39;;;;;;;9.25;3.95;;;;;;;10.33;100.00;96512.66;5020305;28;24443;-70
2022/10/29 05:33:06;;;;;;;12.15;3.75;;;;;;;10.39;100.00;96514.09;5019399;28;24441;-70
2022/10/29 05:35:33;;;;;;;10.30;3.60;;;;;;;10.43;100.00;96507.84;5024437;28;25315;-69
2022/10/29 05:38:00;;;;;;;8.30;3.38;;;;;;;10.44;100.00;96508.69;5028423;28;24451;-69
2022/10/29 05:40:27;;;;;;;6.65;3.03;;;;;;;10.40;100.00;96508.00;5031150;28;24497;-70
2022/10/29 05:42:55;;;;;;;5.88;3.13;;;;;;;10.34;100.00;96508.31;5026227;28;24443;-70
2022/10/29 05:45:21;;;;;;;10.15;3.30;;;;;;;10.22;100.00;96504.53;5029334;28;24807;-70
2022/10/29 05:47:48;;;;;;;9.40;3.78;;;;;;;10.16;100.00;96510.88;5032037;28;25243;-69
2022/10/29 05:50:15;;;;;;;11.07;4.47;;;;;;;10.08;100.00;96510.38;5023090;28;24439;-70
2022/10/29 05:52:41;;;;;;;11.50;3.35;;;;;;;10.16;100.00;96504.88;5024592;28;24432;-71
2022/10/29 05:55:08;;;;;;;7.88;3.55;;;;;;;10.28;100.00;96506.88;5023962;28;24431;-70
2022/10/29 05:57:35;;;;;;;11.63;3.38;;;;;;;10.29;100.00;96512.88;5026077;28;24515;-70
2022/10/29 06:00:04;;;;;;;6.50;3.23;;;;;;;10.30;100.00;96509.38;5023778;28;24439;-71
2022/10/29 06:02:30;;;;;;;10.30;3.78;;;;;;;10.26;100.00;96511.28;5032914;28;24447;-71
2022/10/29 06:04:57;;;;;;;13.27;4.45;;;;;;;10.24;100.00;96513.09;5030417;28;24818;-70
2022/10/29 06:07:23;;;;;;;13.43;3.60;;;;;;;10.17;100.00;96527.25;5029177;28;24466;-71
2022/10/29 06:09:50;;;;;;;11.93;3.40;;;;;;;10.08;100.00;96525.09;5032609;28;24443;-70
2022/10/29 06:12:16;;;;;;;7.65;3.53;;;;;;;10.07;100.00;96520.84;5028396;28;24794;-70
2022/10/29 06:14:43;;;;;;;7.53;3.33;;;;;;;10.03;100.00;96529.66;5026672;28;24439;-70
2022/10/29 06:17:11;;;;;;;16.73;3.33;;;;;;;10.07;100.00;96526.00;5022715;28;24814;-70
2022/10/29 06:19:37;;;;;;;6.82;3.13;;;;;;;10.08;100.00;96528.50;5027758;28;24481;-70
2022/10/29 06:22:04;;;;;;;10.30;4.15;;;;;;;10.10;100.00;96528.44;5025379;28;25349;-70
2022/10/29 06:24:31;;;;;;;10.68;3.75;;;;;;;10.17;100.00;96535.00;5021296;28;24440;-70
2022/10/29 06:26:57;;;;;;;13.02;3.95;;;;;;;10.24;100.00;96533.78;5028363;28;25213;-70
2022/10/29 06:29:24;;;;;;;8.87;3.97;;;;;;;10.26;100.00;96533.75;5030044;28;24444;-70
2022/10/29 06:31:50;;;;;;;9.57;3.92;;;;;;;10.16;100.00;96534.19;5028968;28;24435;-69
2022/10/29 06:34:18;;;;;;;9.15;3.70;;;;;;;10.24;100.00;96527.78;5032397;28;24439;-69
2022/10/29 06:36:44;;;;;;;11.55;3.38;;;;;;;10.29;100.00;96531.84;5029182;28;24447;-69
2022/10/29 06:39:11;;;;;;;6.80;3.30;;;;;;;10.33;100.00;96542.88;5032726;28;24447;-69
2022/10/29 06:41:37;;;;;;;7.80;3.42;;;;;;;10.34;100.00;96537.63;5029319;28;24458;-70
2022/10/29 06:44:04;;;;;;;10.18;3.55;;;;;;;10.35;100.00;96538.47;5027482;28;24436;-70
2022/10/29 06:46:32;;;;;;;9.77;3.33;;;;;;;10.34;100.00;96537.63;5029529;28;24448;-71
2022/10/29 06:48:59;;;;;;;8.88;3.22;;;;;;;10.39;100.00;96540.84;5027157;28;25013;-71
2022/10/29 06:51:27;;;;;;;11.35;3.40;;;;;;;10.39;100.00;96540.84;5030103;28;24486;-71
2022/10/29 06:53:54;;;;;;;9.75;3.20;;;;;;;10.37;100.00;96541.81;5028599;28;24431;-70
2022/10/29 06:56:21;;;;;;;10.40;3.72;;;;;;;10.40;100.00;96542.50;5028887;28;24436;-68
2022/10/29 06:58:47;;;;;;;9.07;3.45;;;;;;;10.47;100.00;96539.63;5025650;28;24435;-70
2022/10/29 07:01:14;;;;;;;11.43;3.90;;;;;;;10.45;100.00;96534.50;5022519;28;24435;-70
2022/10/29 07:03:40;;;;;;;12.05;3.65;;;;;;;10.54;100.00;96533.22;5023766;28;24448;-71
2022/10/29 07:06:07;;;;;;;6.93;3.13;;;;;;;10.59;100.00;96537.22;5024191;28;24456;-69
2022/10/29 07:08:35;;;;;;;9.52;3.47;;;;;;;10.70;100.00;96538.44;5023872;28;25012;-70
2022/10/29 07:11:03;;;;;;;9.82;3.47;;;;;;;10.81;100.00;96536.97;5022482;28;24439;-71
2022/10/29 07:13:29;;;;;;;7.20;3.88;;;;;;;10.92;100.00;96533.84;5032079;28;24442;-70
2022/10/29 07:15:56;;;;;;;8.82;3.38;;;;;;;11.04;100.00;96530.59;5025594;28;24446;-71
2022/10/29 07:18:22;;;;;;;12.60;4.07;;;;;;;11.21;100.00;96540.09;5032406;28;24440;-71
2022/10/29 07:20:49;;;;;;;10.73;4.10;;;;;;;11.29;100.00;96539.69;5032203;28;24454;-69
2022/10/29 07:23:15;;;;;;;11.38;3.90;;;;;;;11.37;100.00;96538.34;5025157;28;24446;-69
2022/10/29 07:25:43;;;;;;;10.90;3.78;;;;;;;11.39;100.00;96548.66;5025269;28;24535;-70
2022/10/29 07:28:12;;;;;;;11.90;4.28;;;;;;;11.47;100.00;96540.47;5017316;28;24432;-70
2022/10/29 07:30:39;;;;;;;10.63;3.92;;;;;;;11.42;100.00;96540.72;5025578;28;24437;-70
2022/10/29 07:33:06;;;;;;;12.57;3.88;;;;;;;11.47;100.00;96541.28;5025069;28;25022;-70
2022/10/29 07:35:33;;;;;;;11.65;3.90;;;;;;;11.44;100.00;96546.63;5021652;28;24435;-70
2022/10/29 07:38:00;;;;;;;13.55;4.45;;;;;;;11.50;100.00;96548.06;5028683;28;25075;-70
2022/10/29 07:40:26;;;;;;;10.77;3.88;;;;;;;11.61;100.00;96550.94;5025938;28;24490;-70
2022/10/29 07:42:55;;;;;;;8.50;4.07;;;;;;;11.73;100.00;96550.25;5028663;28;24428;-70
2022/10/29 07:45:21;;;;;;;12.70;4.28;;;;;;;11.78;100.00;96550.81;5025401;28;24456;-70
2022/10/29 07:47:48;;;;;;;15.32;4.55;;;;;;;11.78;100.00;96556.00;5028951;28;24432;-70
2022/10/29 07:50:15;;;;;;;16.08;4.70;;;;;;;11.86;100.00;96548.69;5026142;28;24443;-71
2022/10/29 07:52:42;;;;;;;10.80;4.80;;;;;;;11.93;100.00;96551.75;5022305;28;24439;-71
2022/10/29 07:55:09;;;;;;;15.20;5.40;;;;;;;12.03;100.00;96546.91;5026944;28;24433;-71
2022/10/29 07:57:36;;;;;;;15.60;6.05;;;;;;;12.17;100.00;96549.56;5028052;28;24432;-71
2022/10/29 08:00:04;;;;;;;11.75;5.30;;;;;;;12.29;100.00;96554.06;5021940;28;24439;-71
2022/10/29 08:02:31;;;;;;;20.00;6.00;;;;;;;12.41;100.00;96560.31;5025129;28;24442;-71
2022/10/29 08:04:57;;;;;;;15.10;5.60;;;;;;;12.61;100.00;96556.56;5020970;28;24440;-71
2022/10/29 08:07:24;;;;;;;12.82;4.85;;;;;;;12.80;100.00;96557.16;5026784;28;24882;-71
2022/10/29 08:09:50;;;;;;;19.80;4.70;;;;;;;12.98;100.00;96554.41;5027728;28;24443;-71
2022/10/29 08:12:17;;;;;;;11.57;4.80;;;;;;;13.11;100.00;96557.09;5025568;28;24440;-71
2022/10/29 08:14:43;;;;;;;12.30;4.65;;;;;;;13.31;100.00;96552.38;5025199;28;24439;-71
2022/10/29 08:17:11;;;;;;;18.45;5.07;;;;;;;13.44;100.00;96560.25;5024337;28;24970;-71
2022/10/29 08:19:37;;;;;;;20.08;4.65;;;;;;;13.66;100.00;96551.97;5019116;28;24447;-71
2022/10/29 08:22:04;;;;;;;9.63;4.82;;;;;;;13.76;100.00;96555.66;5028813;28;24439;-71
2022/10/29 08:24:30;;;;;;;13.07;4.30;;;;;;;14.02;100.00;96547.97;5026343;28;24432;-70
2022/10/29 08:26:57;;;;;;;19.95;5.18;;;;;;;14.16;100.00;96554.88;5026550;28;24455;-73
2022/10/29 08:29:23;;;;;;;16.23;4.85;;;;;;;14.27;100.00;96549.81;5035712;28;24431;-72
2022/10/29 08:31:50;;;;;;;9.48;4.28;;;;;;;14.47;100.00;96549.34;5027858;28;24426;-70
2022/10/29 08:34:18;;;;;;;10.88;4.38;;;;;;;14.57;100.00;96549.59;5015846;28;25004;-70
2022/10/29 08:36:44;;;;;;;19.83;4.53;;;;;;;14.68;100.00;96554.94;5028371;28;24443;-70
2022/10/29 08:39:11;;;;;;;14.15;4.50;;;;;;;14.81;100.00;96552.34;5026267;28;24994;-70
2022/10/29 08:41:49;;;;;;;16.92;4.70;;;;;;;14.86;100.00;96546.81;5023837;28;24443;-70
2022/10/29 08:45:00;;;;;;;11.57;4.63;;;;;;;14.96;100.00;96548.69;5020766;28;24783;-70
2022/10/29 08:47:27;;;;;;;9.40;4.20;;;;;;;15.08;100.00;96548.81;4978364;28;24427;-70
2022/10/29 08:50:04;;;;;;;10.63;4.28;;;;;;;15.32;100.00;96551.50;5025782;28;24439;-72
2022/10/29 08:52:37;;;;;;;9.65;4.40;;;;;;;15.43;100.00;96554.22;5028853;28;24439;-70
2022/10/29 08:55:08;;;;;;;14.68;4.47;;;;;;;15.50;100.00;96552.84;5023822;28;24794;-70
2022/10/29 08:57:42;;;;;;;10.38;4.22;;;;;;;15.67;100.00;96557.72;5025154;28;24447;-70
2022/10/29 09:00:15;;;;;;;15.07;5.07;;;;;;;15.69;100.00;96553.25;5020812;28;24424;-70
2022/10/29 09:02:41;;;;;;;9.02;4.60;;;;;;;15.93;100.00;96561.09;5025679;28;24984;-70
2022/10/29 09:05:14;;;;;;;10.80;4.53;;;;;;;15.97;100.00;96559.94;5021020;28;24438;-70
2022/10/29 09:08:00;;;;;;;10.90;4.30;;;;;;;16.24;100.00;96558.91;5024225;28;25061;-70
2022/10/29 09:10:32;;;;;;;13.35;4.35;;;;;;;16.31;100.00;96564.50;5028311;28;25048;-70
2022/10/29 09:13:09;;;;;;;10.60;4.50;;;;;;;16.44;100.00;96565.28;5025452;28;24507;-70
2022/10/29 09:15:52;;;;;;;13.77;4.60;;;;;;;16.58;100.00;96559.03;5031410;28;24805;-70
2022/10/29 09:18:30;;;;;;;14.00;4.85;;;;;;;16.68;100.00;96558.22;5022605;28;24455;-71
2022/10/29 09:21:06;;;;;;;15.07;5.13;;;;;;;16.67;100.00;96556.56;5026996;28;24443;-71
2022/10/29 09:23:54;;;;;;;15.55;5.57;;;;;;;16.72;100.00;96547.53;5024993;28;24435;-70
2022/10/29 09:26:29;;;;;;;10.13;4.50;;;;;;;16.89;100.00;96549.75;5028697;28;24845;-70
2022/10/29 09:29:11;;;;;;;15.30;5.23;;;;;;;16.89;100.00;96552.38;5023248;28;24495;-70
2022/10/29 09:31:43;;;;;;;11.95;5.10;;;;;;;17.17;100.00;96538.84;5024240;28;24538;-70
2022/10/29 09:34:16;;;;;;;13.63;5.15;;;;;;;17.31;98.22;96537.75;5016673;28;24996;-70
2022/10/29 09:36:45;;;;;;;17.10;4.80;;;;;;;17.52;98.23;96530.03;5028880;28;24546;-70
2022/10/29 09:39:15;;;;;;;19.88;6.00;;;;;;;17.72;98.58;96536.31;5027904;28;24447;-70
2022/10/29 09:41:44;;;;;;;18.20;5.20;;;;;;;17.85;97.10;96534.41;5028627;28;24832;-70
2022/10/29 09:44:19;;;;;;;11.23;5.33;;;;;;;17.93;96.29;96523.31;5024568;28;24429;-70
2022/10/29 09:46:52;;;;;;;13.15;5.22;;;;;;;18.00;96.21;96526.28;5028548;28;24459;-70
2022/10/29 09:49:34;;;;;;;15.33;5.30;;;;;;;18.07;96.46;96530.91;5025944;28;24455;-70
2022/10/29 09:52:06;;;;;;;17.27;5.70;;;;;;;18.15;94.03;96527.66;5020360;28;24435;-70
2022/10/29 09:54:33;;;;;;;15.75;5.18;;;;;;;18.22;96.43;96531.44;5028571;28;24435;-70
2022/10/29 09:57:02;;;;;;;12.32;5.32;;;;;;;18.34;96.22;96540.94;5026891;28;24507;-70
2022/10/29 09:59:33;;;;;;;15.88;5.20;;;;;;;18.42;95.04;96532.44;5020414;28;24443;-71
2022/10/29 10:02:00;;;;;;;18.75;4.95;;;;;;;18.49;95.13;96536.22;5020659;28;24522;-71
2022/10/29 10:04:30;;;;;;;15.63;5.13;;;;;;;18.67;94.42;96533.88;5028271;28;24432;-70
2022/10/29 10:07:07;;;;;;;16.08;4.65;;;;;;;18.72;94.47;96533.50;5021353;28;24562;-70
2022/10/29 10:09:52;;;;;;;14.30;4.57;;;;;;;18.77;93.84;96528.72;5023783;28;25021;-70
2022/10/29 10:12:19;;;;;;;18.52;4.93;;;;;;;18.89;95.04;96529.50;5022027;28;24436;-70
2022/10/29 10:14:47;;;;;;;12.18;4.28;;;;;;;19.06;95.37;96529.75;5028702;28;24432;-70
2022/10/29 10:17:14;;;;;;;13.90;4.60;;;;;;;19.16;94.64;96526.31;5025541;28;24958;-70
2022/10/29 10:19:44;;;;;;;10.10;4.50;;;;;;;19.32;94.19;96526.69;5028214;28;24432;-70
2022/10/29 10:22:19;;;;;;;13.85;4.80;;;;;;;19.40;92.92;96526.03;5021115;28;24435;-70
2022/10/29 10:24:46;;;;;;;19.27;5.25;;;;;;;19.39;91.92;96519.91;5023604;28;24439;-70
2022/10/29 10:27:25;;;;;;;12.00;4.55;;;;;;;19.43;93.07;96526.59;5024575;28;25014;-70
2022/10/29 10:30:11;;;;;;;13.77;4.75;;;;;;;19.43;91.92;96518.72;5030783;28;24493;-70
2022/10/29 10:32:38;;;;;;;16.65;4.75;;;;;;;19.44;92.45;96517.75;5028692;28;24438;-70
2022/10/29 10:35:25;;;;;;;10.57;4.13;;;;;;;19.54;92.18;96523.00;5029057;28;25075;-70
2022/10/29 10:37:54;;;;;;;13.00;3.92;;;;;;;19.57;92.32;96523.56;5027327;28;24435;-70
2022/10/29 10:40:24;;;;;;;10.95;4.38;;;;;;;19.65;90.79;96524.75;5027230;28;24433;-70
2022/10/29 10:42:53;;;;;;;10.13;4.10;;;;;;;19.76;90.16;96522.00;5026039;28;24755;-70
2022/10/29 10:45:25;;;;;;;12.25;4.28;;;;;;;19.74;89.16;96522.16;5020980;28;24432;-70
2022/10/29 10:47:56;;;;;;;13.57;4.43;;;;;;;19.87;89.67;96514.00;5030301;28;24619;-70
2022/10/29 10:50:27;;;;;;;16.08;4.68;;;;;;;19.92;88.34;96511.00;5027349;28;24436;-71
2022/10/29 10:52:57;;;;;;;15.50;4.18;;;;;;;20.04;89.71;96510.72;5028415;28;24439;-71
2022/10/29 10:55:27;;;;;;;10.13;4.35;;;;;;;20.10;88.97;96505.88;5026711;28;24432;-73
2022/10/29 10:58:01;;;;;;;9.05;4.00;;;;;;;20.19;89.98;96510.31;5030609;28;24443;-71
2022/10/29 11:00:31;;;;;;;15.48;5.03;;;;;;;20.18;87.08;96498.16;5024242;28;24432;-70
2022/10/29 11:03:04;;;;;;;10.80;4.68;;;;;;;20.18;86.76;96496.34;5029795;28;24999;-72
2022/10/29 11:05:35;;;;;;;11.98;4.10;;;;;;;20.23;89.55;96495.91;5028098;28;24797;-71
2022/10/29 11:08:10;;;;;;;16.90;4.60;;;;;;;20.20;85.90;96497.00;5029532;28;24463;-72
2022/10/29 11:10:43;;;;;;;12.93;4.85;;;;;;;20.25;86.41;96491.38;5029311;28;24798;-71
2022/10/29 11:13:15;;;;;;;14.88;4.68;;;;;;;20.26;85.88;96488.59;5028373;28;24424;-71
2022/10/29 11:15:48;;;;;;;11.85;4.13;;;;;;;20.31;82.35;96488.97;5026233;28;24434;-71
2022/10/29 11:18:19;;;;;;;13.13;4.45;;;;;;;20.42;86.10;96479.28;5022243;28;24444;-72
2022/10/29 11:20:51;;;;;;;16.20;4.78;;;;;;;20.62;87.22;96477.53;5030022;28;24424;-72
2022/10/29 11:23:30;;;;;;;12.82;4.40;;;;;;;20.70;85.54;96475.84;5028306;28;24436;-72
2022/10/29 11:26:04;;;;;;;12.02;4.10;;;;;;;20.68;84.23;96474.31;5030423;28;24435;-72
2022/10/29 11:28:37;;;;;;;32.13;5.53;;;;;;;20.73;84.43;96469.47;5028229;28;24517;-72
2022/10/29 11:31:13;;;;;;;13.00;4.00;;;;;;;20.79;84.56;96474.97;5030120;28;24431;-72